PROFILE

 METAR AND TAF INFORMATION
METAR FOR GOBD
ADDS - METARS form results

(2253 UTC 23 April 2018)
Data provider http://aviationweather.gov/adds/metars/
 
METAR text: GOBD 232230Z 36015KT CAVOK 19/16 Q1014 NOSIG
Conditions at: GOBD (DAKAR/DIAGNE , SN) observed 2230 UTC 23 April 2018
Temperature: 19.0°C (66°F)
Dewpoint: 16.0°C (61°F) [RH = 83%]
Pressure (altimeter): 29.94 inches Hg (1014.0 mb)
Winds: from the N (360 degrees) at 17 MPH (15 knots; 7.8 m/s)
Visibility: 6 or more miles (10+ km)
Ceiling: ceiling and visibility are OK
Clouds: unknown
Weather: no significant weather observed at this time

METAR text: GOBD 232200Z 36015KT CAVOK 19/16 Q1014 NOSIG
Conditions at: GOBD (DAKAR/DIAGNE , SN) observed 2200 UTC 23 April 2018
Temperature: 19.0°C (66°F)
Dewpoint: 16.0°C (61°F) [RH = 83%]
Pressure (altimeter): 29.94 inches Hg (1014.0 mb)
Winds: from the N (360 degrees) at 17 MPH (15 knots; 7.8 m/s)
Visibility: 6 or more miles (10+ km)
Ceiling: ceiling and visibility are OK
Clouds: unknown
Weather: no significant weather observed at this time

Forecast for: GOBD (DAKAR/DIAGNE , SN)
Text: TAF GOBD 231730Z 2318/2424 35016KT CAVOK
Forecast period: 1800 UTC 23 April 2018 to 0000 UTC 25 April 2018
Forecast type: FROM: standard forecast or significant change
Winds: from the N (350 degrees) at 18 MPH (16 knots; 8.3 m/s)
Visibility: 6 or more miles (10+ km)
Clouds: not forecast
Weather: NSW  (no significant weather)
Forecast for: GOBD (DAKAR/DIAGNE , SN)
Text: TAF GOBD 231730Z 2318/2424 35016KT CAVOK
Forecast period: 1800 UTC 23 April 2018 to 0000 UTC 25 April 2018
Forecast type: FROM: standard forecast or significant change
Winds: from the N (350 degrees) at 18 MPH (16 knots; 8.3 m/s)
Visibility: 6 or more miles (10+ km)
Clouds: not forecast
Weather: NSW  (no significant weather)

 AIRPORT MAP

 RUNWAY INFORMATION

 AIRPORT FREQUENCIES

 AIRPORT NEAR NAVIGATION AIDS